Time;durP1;ratioP1;P1;durP2;ratioP2;P2;SDS_P1;SDS_P2;PMS_P1;PMS_P2;Temp;Humidity;BMP_temperature;BMP_pressure;BME280_temperature;BME280_humidity;BME280_pressure;Samples;Min_cycle;Max_cycle;Signal;HPM_P1;HPM_P2
2021/10/13 00:01:45;;;;;;;13.98;9.43;;;26.00;97.30;;;;;;1891751;74;21201;-80
2021/10/13 00:04:16;;;;;;;17.50;10.00;;;26.00;97.50;;;;;;1900915;74;21202;-81
2021/10/13 00:06:52;;;;;;;16.12;9.80;;;26.00;97.30;;;;;;1913511;74;21146;-81
2021/10/13 00:09:22;;;;;;;11.93;9.23;;;26.00;97.20;;;;;;1893323;74;21668;-80
2021/10/13 00:11:54;;;;;;;11.55;9.25;;;26.00;97.00;;;;;;1923508;73;21208;-80
2021/10/13 00:14:28;;;;;;;13.70;9.15;;;26.00;96.90;;;;;;1873407;74;21234;-82
2021/10/13 00:17:06;;;;;;;11.88;9.40;;;26.00;96.90;;;;;;1888785;74;21091;-81
2021/10/13 00:20:40;;;;;;;14.68;8.93;;;26.10;97.00;;;;;;1905817;73;21091;-79
2021/10/13 00:22:22;;;;;;;12.43;9.63;;;26.10;97.00;;;;;;1904633;73;21221;-80
2021/10/13 00:24:53;;;;;;;12.35;9.05;;;26.10;97.20;;;;;;1903382;73;21672;-80
2021/10/13 00:27:24;;;;;;;15.95;10.48;;;26.10;97.20;;;;;;1916142;72;21595;-82
2021/10/13 00:29:55;;;;;;;13.75;9.95;;;26.10;97.20;;;;;;1902045;74;21232;-83
2021/10/13 00:32:28;;;;;;;14.23;9.90;;;26.20;97.40;;;;;;1914458;73;21180;-82
2021/10/13 00:34:58;;;;;;;14.58;9.95;;;26.20;97.50;;;;;;1888324;74;21859;-82
2021/10/13 00:37:29;;;;;;;14.87;9.75;;;26.20;97.50;;;;;;1919215;73;21130;-81
2021/10/13 00:40:02;;;;;;;14.13;9.50;;;26.20;97.50;;;;;;1891205;74;21182;-81
2021/10/13 00:42:39;;;;;;;12.20;9.55;;;26.30;97.60;;;;;;1882630;75;21599;-81
2021/10/13 00:45:20;;;;;;;12.00;10.05;;;26.30;97.70;;;;;;1895070;73;21654;-80
2021/10/13 00:47:51;;;;;;;13.05;10.55;;;26.30;98.00;;;;;;1906383;74;21169;-80
2021/10/13 00:50:22;;;;;;;14.45;11.00;;;26.30;98.30;;;;;;1907490;73;21135;-80
2021/10/13 00:52:53;;;;;;;16.07;10.93;;;26.30;98.50;;;;;;1884038;74;21156;-80
2021/10/13 00:55:24;;;;;;;14.60;10.85;;;26.30;98.90;;;;;;1905349;74;21139;-80
2021/10/13 00:57:55;;;;;;;14.18;11.12;;;26.30;99.00;;;;;;1897961;74;21107;-80
2021/10/13 01:00:26;;;;;;;16.55;12.05;;;26.30;99.00;;;;;;1894162;74;21509;-79
2021/10/13 01:03:00;;;;;;;14.25;11.73;;;26.40;99.40;;;;;;1931438;73;21082;-79
2021/10/13 01:05:33;;;;;;;14.63;11.78;;;26.40;99.40;;;;;;1922437;73;21174;-78
2021/10/13 01:08:10;;;;;;;15.13;11.38;;;26.50;99.90;;;;;;1920615;74;21566;-82
2021/10/13 01:10:48;;;;;;;15.45;10.75;;;26.50;99.40;;;;;;1882809;74;21106;-82
2021/10/13 01:13:25;;;;;;;13.45;9.98;;;26.60;99.40;;;;;;1917967;73;21644;-81
2021/10/13 01:15:59;;;;;;;12.40;10.18;;;26.60;99.30;;;;;;1914458;74;21138;-81
2021/10/13 01:18:34;;;;;;;13.60;9.78;;;26.60;99.30;;;;;;1901864;74;21198;-81
2021/10/13 01:21:08;;;;;;;13.20;10.43;;;26.70;99.30;;;;;;1888941;74;21180;-81
2021/10/13 01:23:42;;;;;;;14.30;10.00;;;26.70;99.30;;;;;;1897564;74;21081;-80
2021/10/13 01:26:16;;;;;;;11.25;9.23;;;26.60;99.20;;;;;;1886271;74;21661;-81
2021/10/13 01:28:49;;;;;;;12.25;8.80;;;26.70;99.10;;;;;;1903727;74;21244;-81
2021/10/13 01:31:22;;;;;;;14.03;9.98;;;26.60;99.00;;;;;;1907156;73;21643;-81
2021/10/13 01:33:55;;;;;;;14.05;9.50;;;26.60;99.00;;;;;;1895308;73;21240;-81
2021/10/13 01:36:28;;;;;;;11.10;8.68;;;26.50;99.00;;;;;;1893488;74;21226;-81
2021/10/13 01:39:01;;;;;;;10.75;8.48;;;26.50;99.00;;;;;;1894097;74;21756;-81
2021/10/13 01:41:35;;;;;;;13.18;9.90;;;26.50;98.80;;;;;;1892835;74;21590;-80
2021/10/13 01:44:08;;;;;;;13.22;8.98;;;26.50;99.00;;;;;;1886396;74;21677;-81
2021/10/13 01:46:40;;;;;;;13.15;9.03;;;26.60;99.00;;;;;;1866721;74;21169;-81
2021/10/13 01:49:12;;;;;;;15.38;9.13;;;26.60;98.90;;;;;;1917109;73;21166;-81
2021/10/13 01:51:47;;;;;;;10.43;8.50;;;26.60;98.80;;;;;;1868472;74;21179;-81
2021/10/13 01:54:19;;;;;;;10.48;8.88;;;26.70;98.70;;;;;;1909277;73;21111;-81
2021/10/13 01:56:50;;;;;;;11.70;9.03;;;26.70;98.70;;;;;;1899072;73;21192;-80
2021/10/13 01:59:23;;;;;;;10.10;8.60;;;26.70;98.60;;;;;;1906976;73;21215;-80
2021/10/13 02:01:55;;;;;;;13.18;8.70;;;26.70;98.60;;;;;;1921167;73;21205;-81
2021/10/13 02:04:27;;;;;;;10.63;8.85;;;26.70;98.30;;;;;;1935529;73;21362;-80
2021/10/13 02:06:58;;;;;;;10.78;8.55;;;26.70;98.30;;;;;;1948363;73;21154;-80
2021/10/13 02:09:30;;;;;;;12.80;8.35;;;26.70;98.10;;;;;;1916021;72;21127;-80
2021/10/13 02:12:03;;;;;;;8.53;7.58;;;26.70;98.00;;;;;;1872953;75;21254;-80
2021/10/13 02:14:36;;;;;;;8.85;7.45;;;26.80;97.30;;;;;;1920022;73;21594;-80
2021/10/13 02:17:09;;;;;;;10.80;7.92;;;26.80;96.80;;;;;;1918295;72;21127;-82
2021/10/13 02:19:41;;;;;;;12.73;8.75;;;26.80;97.30;;;;;;1877325;74;21466;-81
2021/10/13 02:22:13;;;;;;;13.08;8.55;;;26.80;98.00;;;;;;1903261;74;21555;-81
2021/10/13 02:24:46;;;;;;;26.85;7.92;;;26.80;98.00;;;;;;1892741;73;21236;-81
2021/10/13 02:27:24;;;;;;;8.10;6.55;;;26.80;96.20;;;;;;1906221;73;21186;-80
2021/10/13 02:29:54;;;;;;;10.18;8.03;;;26.80;96.20;;;;;;1901606;73;21083;-80
2021/10/13 02:32:25;;;;;;;8.93;7.25;;;26.90;96.40;;;;;;1893158;73;21113;-81
2021/10/13 02:34:58;;;;;;;9.43;7.62;;;26.90;96.60;;;;;;1911556;73;21489;-81
2021/10/13 02:37:35;;;;;;;15.20;8.75;;;27.00;96.20;;;;;;1936151;73;21742;-82
2021/10/13 02:40:05;;;;;;;10.85;7.65;;;27.00;96.80;;;;;;1911071;73;21160;-82
2021/10/13 02:42:47;;;;;;;7.67;6.47;;;27.10;96.40;;;;;;1905153;73;21743;-82
2021/10/13 02:45:18;;;;;;;11.33;6.75;;;27.10;94.80;;;;;;1900341;74;21288;-82
2021/10/13 02:47:54;;;;;;;10.98;7.08;;;27.10;95.00;;;;;;1911799;73;21130;-82
2021/10/13 02:50:25;;;;;;;12.68;7.72;;;27.20;95.10;;;;;;1945061;73;21153;-81
2021/10/13 02:52:59;;;;;;;9.45;7.17;;;27.20;95.30;;;;;;1912234;73;21134;-81
2021/10/13 02:55:32;;;;;;;10.68;7.00;;;27.20;95.40;;;;;;1927028;72;21210;-81
2021/10/13 02:58:05;;;;;;;8.43;6.78;;;27.30;94.60;;;;;;1904064;73;21110;-81
2021/10/13 03:00:39;;;;;;;8.78;7.47;;;27.30;94.40;;;;;;1904983;73;21123;-80
2021/10/13 03:03:12;;;;;;;12.45;7.95;;;27.40;94.90;;;;;;1926105;71;21605;-80
2021/10/13 03:05:45;;;;;;;10.23;7.80;;;27.40;95.10;;;;;;1895123;73;21596;-80
2021/10/13 03:08:18;;;;;;;11.10;7.95;;;27.40;94.60;;;;;;1900861;73;21751;-80
2021/10/13 03:10:51;;;;;;;10.63;8.38;;;27.50;93.90;;;;;;1896144;73;21158;-81
2021/10/13 03:13:24;;;;;;;11.63;8.55;;;27.60;95.10;;;;;;1912457;72;21653;-81
2021/10/13 03:15:57;;;;;;;11.35;8.20;;;27.70;95.30;;;;;;1905207;74;21143;-80
2021/10/13 03:18:28;;;;;;;14.78;9.00;;;27.60;95.40;;;;;;1871879;74;21070;-80
2021/10/13 03:21:00;;;;;;;14.28;8.78;;;27.60;95.60;;;;;;1885137;74;21240;-80
2021/10/13 03:23:31;;;;;;;13.05;8.70;;;27.70;96.20;;;;;;1903263;73;21253;-80
2021/10/13 03:26:04;;;;;;;12.95;8.40;;;27.70;95.80;;;;;;1927971;73;21670;-81
2021/10/13 03:28:37;;;;;;;13.65;9.10;;;27.70;95.80;;;;;;1853874;75;21303;-80
2021/10/13 03:31:09;;;;;;;10.80;8.53;;;27.80;95.40;;;;;;1923714;73;21216;-80
2021/10/13 03:33:40;;;;;;;10.75;8.18;;;27.80;95.30;;;;;;1906804;73;21603;-80
2021/10/13 03:36:11;;;;;;;10.48;7.85;;;27.80;95.00;;;;;;1918300;73;21118;-81
2021/10/13 03:38:42;;;;;;;9.28;7.65;;;27.90;95.10;;;;;;1887221;74;21132;-80
2021/10/13 03:41:12;;;;;;;12.23;8.40;;;28.00;94.30;;;;;;1934355;73;21590;-81
2021/10/13 03:43:47;;;;;;;11.80;8.00;;;28.00;94.00;;;;;;1930570;73;21579;-82
2021/10/13 03:46:23;;;;;;;7.97;6.73;;;28.00;93.90;;;;;;1909544;72;21275;-81
2021/10/13 03:48:54;;;;;;;9.40;7.83;;;28.00;93.90;;;;;;1916320;73;21553;-82
2021/10/13 03:51:28;;;;;;;9.43;7.80;;;28.00;93.50;;;;;;1917624;72;21195;-80
2021/10/13 03:53:58;;;;;;;9.78;8.28;;;28.00;93.20;;;;;;1884285;74;21292;-82
2021/10/13 03:56:31;;;;;;;9.53;7.22;;;28.10;93.20;;;;;;1900607;73;21640;-81
2021/10/13 03:59:02;;;;;;;11.30;7.62;;;28.00;93.10;;;;;;1908415;73;21232;-81
2021/10/13 04:01:33;;;;;;;9.63;7.03;;;28.00;92.80;;;;;;1881428;73;21669;-81
2021/10/13 04:04:05;;;;;;;7.97;7.12;;;27.90;93.00;;;;;;1870105;74;21697;-81
2021/10/13 04:06:38;;;;;;;9.43;6.97;;;28.00;92.90;;;;;;1891913;73;21154;-80
2021/10/13 04:09:09;;;;;;;10.10;7.50;;;28.00;92.70;;;;;;1907375;73;21173;-80
2021/10/13 04:11:40;;;;;;;8.78;6.80;;;28.00;92.90;;;;;;1870001;74;21230;-81
2021/10/13 04:14:11;;;;;;;11.55;8.28;;;28.00;92.60;;;;;;1891310;74;21133;-80
2021/10/13 04:16:41;;;;;;;8.90;6.95;;;28.00;92.70;;;;;;1903194;73;21257;-81
2021/10/13 04:19:12;;;;;;;11.80;7.40;;;28.10;92.10;;;;;;1902476;74;21096;-81
2021/10/13 04:21:43;;;;;;;9.40;6.92;;;28.20;92.10;;;;;;1866336;74;21185;-81
2021/10/13 04:24:14;;;;;;;11.93;7.03;;;28.20;92.30;;;;;;1868395;75;21174;-81
2021/10/13 04:26:46;;;;;;;10.28;7.58;;;28.30;91.90;;;;;;1874566;74;21175;-81
2021/10/13 04:29:19;;;;;;;9.70;7.87;;;28.30;92.30;;;;;;1886218;73;21200;-82
2021/10/13 04:31:50;;;;;;;10.80;7.72;;;28.40;92.30;;;;;;1885622;75;21126;-80
2021/10/13 04:34:21;;;;;;;12.98;7.58;;;28.50;91.70;;;;;;1891967;74;21622;-82
2021/10/13 04:36:57;;;;;;;8.23;7.33;;;28.50;91.90;;;;;;1859794;75;21607;-81
2021/10/13 04:39:26;;;;;;;10.10;6.87;;;28.60;91.70;;;;;;1910927;73;21151;-82
2021/10/13 04:41:56;;;;;;;8.68;7.00;;;28.60;91.70;;;;;;1889620;73;21738;-81
2021/10/13 04:44:27;;;;;;;9.40;6.70;;;28.60;91.80;;;;;;1860553;75;21103;-79
2021/10/13 04:46:58;;;;;;;8.70;6.87;;;28.70;91.30;;;;;;1912345;73;21116;-82
2021/10/13 04:49:30;;;;;;;7.62;6.75;;;28.70;91.10;;;;;;1916940;74;21178;-82
2021/10/13 04:52:01;;;;;;;8.60;6.15;;;28.70;90.80;;;;;;1870397;74;21237;-82
2021/10/13 04:54:32;;;;;;;10.70;6.55;;;28.80;90.50;;;;;;1912855;73;21115;-81
2021/10/13 04:57:03;;;;;;;10.85;7.15;;;28.80;90.30;;;;;;1900155;73;21213;-81
2021/10/13 04:59:35;;;;;;;9.00;7.08;;;28.90;90.90;;;;;;1875782;74;21606;-80
2021/10/13 05:02:06;;;;;;;9.00;7.00;;;28.90;91.40;;;;;;1907192;73;21115;-81
2021/10/13 05:04:41;;;;;;;8.48;6.53;;;28.90;91.20;;;;;;1896461;73;21154;-81
2021/10/13 05:07:09;;;;;;;9.03;7.40;;;28.90;91.10;;;;;;1876323;74;21131;-81
2021/10/13 05:09:40;;;;;;;8.40;6.85;;;28.90;91.40;;;;;;1893347;73;21807;-81
2021/10/13 05:12:10;;;;;;;7.97;6.97;;;28.90;91.20;;;;;;1912094;73;21236;-81
2021/10/13 05:14:44;;;;;;;11.38;6.95;;;28.90;90.80;;;;;;1887463;73;21147;-81
2021/10/13 05:17:13;;;;;;;7.92;6.08;;;29.00;91.10;;;;;;1891228;73;21155;-81
2021/10/13 05:20:37;;;;;;;;;;;;;;;;;;;;;
2021/10/13 05:24:08;;;;;;;9.65;6.83;;;29.10;90.30;;;;;;1892223;73;21729;-82
2021/10/13 05:25:58;;;;;;;10.43;6.53;;;29.20;88.60;;;;;;1739174;79;21193;-81
2021/10/13 05:28:29;;;;;;;8.80;7.20;;;29.20;90.10;;;;;;1770202;79;21264;-82
2021/10/13 05:31:00;;;;;;;8.03;5.97;;;29.20;89.10;;;;;;1770665;80;21157;-82
2021/10/13 05:33:31;;;;;;;9.48;6.40;;;29.20;88.90;;;;;;1771711;79;21303;-83
2021/10/13 05:36:02;;;;;;;8.43;6.50;;;29.20;89.20;;;;;;1767835;81;21178;-81
2021/10/13 05:38:34;;;;;;;8.58;6.60;;;29.30;89.60;;;;;;1774896;80;21245;-82
2021/10/13 05:41:05;;;;;;;8.50;6.50;;;29.50;89.10;;;;;;1774896;80;21801;-81
2021/10/13 05:43:36;;;;;;;9.23;6.83;;;29.50;89.40;;;;;;1739501;81;21285;-82
2021/10/13 05:46:07;;;;;;;9.00;6.55;;;29.50;88.60;;;;;;1766109;81;21330;-81
2021/10/13 05:48:38;;;;;;;8.13;6.92;;;29.40;88.70;;;;;;1769197;81;21325;-80
2021/10/13 05:51:09;;;;;;;8.75;6.80;;;29.30;89.00;;;;;;1750880;81;21367;-81
2021/10/13 05:53:40;;;;;;;9.28;7.05;;;29.30;88.20;;;;;;1766081;80;21307;-80
2021/10/13 05:56:11;;;;;;;8.58;7.08;;;29.30;88.00;;;;;;1775166;80;21346;-81
2021/10/13 05:58:42;;;;;;;7.42;6.22;;;29.20;87.40;;;;;;1734194;81;21257;-81
2021/10/13 06:01:18;;;;;;;7.40;6.12;;;29.30;87.00;;;;;;1766226;80;21328;-81
2021/10/13 06:03:45;;;;;;;9.08;6.00;;;29.40;86.80;;;;;;1833135;76;21095;-83
2021/10/13 06:06:17;;;;;;;9.13;7.08;;;29.40;86.80;;;;;;1874370;75;21615;-82
2021/10/13 06:08:47;;;;;;;8.55;6.20;;;29.50;88.40;;;;;;1880496;75;21097;-84
2021/10/13 06:11:18;;;;;;;9.88;7.12;;;29.60;86.70;;;;;;1881704;74;21114;-81
2021/10/13 06:13:49;;;;;;;8.70;7.40;;;29.70;87.40;;;;;;1885791;74;21281;-83
2021/10/13 06:16:21;;;;;;;8.00;6.17;;;29.70;86.70;;;;;;1883137;74;21233;-82
2021/10/13 06:18:52;;;;;;;10.40;6.05;;;29.70;87.50;;;;;;1885316;75;21182;-81
2021/10/13 06:21:23;;;;;;;12.40;6.70;;;29.80;88.70;;;;;;1881780;74;21545;-82
2021/10/13 06:23:54;;;;;;;9.53;6.37;;;29.80;87.50;;;;;;1884650;74;21180;-82
2021/10/13 06:26:25;;;;;;;9.75;6.90;;;29.90;86.20;;;;;;1893585;74;21602;-82
2021/10/13 06:28:56;;;;;;;9.53;6.85;;;29.90;86.20;;;;;;1883705;75;21623;-82
2021/10/13 06:31:27;;;;;;;7.22;6.08;;;29.80;86.60;;;;;;1871573;75;21117;-82
2021/10/13 06:33:58;;;;;;;8.00;6.40;;;29.70;87.50;;;;;;1880026;75;21592;-82
2021/10/13 06:36:31;;;;;;;7.92;6.60;;;29.60;87.40;;;;;;1898450;74;21191;-81
2021/10/13 06:39:03;;;;;;;8.45;5.95;;;29.50;87.40;;;;;;1909231;73;21575;-81
2021/10/13 06:41:33;;;;;;;8.03;6.12;;;29.40;88.30;;;;;;1924308;72;21121;-81
2021/10/13 06:44:05;;;;;;;7.33;5.90;;;29.40;88.40;;;;;;1920469;73;21620;-80
2021/10/13 06:46:39;;;;;;;10.30;7.10;;;29.40;89.30;;;;;;1916020;72;21087;-81
2021/10/13 06:49:10;;;;;;;8.33;6.40;;;29.40;90.00;;;;;;1929216;73;21975;-82
2021/10/13 06:51:42;;;;;;;8.93;6.35;;;29.40;88.90;;;;;;1928557;72;21164;-81
2021/10/13 06:54:13;;;;;;;9.03;6.42;;;29.50;88.40;;;;;;1929843;73;21122;-81
2021/10/13 06:56:44;;;;;;;12.98;7.78;;;29.60;88.60;;;;;;1919422;73;21218;-81
2021/10/13 06:59:14;;;;;;;10.40;7.42;;;29.60;88.20;;;;;;1888771;73;21095;-82
2021/10/13 07:01:45;;;;;;;8.65;6.42;;;29.70;88.60;;;;;;1882795;74;21166;-81
2021/10/13 07:04:16;;;;;;;7.95;5.95;;;29.70;87.80;;;;;;1912703;73;21173;-84
2021/10/13 07:06:47;;;;;;;8.75;5.87;;;29.60;87.90;;;;;;1913372;73;21602;-81
2021/10/13 07:09:17;;;;;;;8.00;6.10;;;29.50;87.70;;;;;;1928865;73;21153;-81
2021/10/13 07:11:48;;;;;;;7.70;6.37;;;29.50;88.10;;;;;;1867203;74;21174;-83
2021/10/13 07:14:19;;;;;;;10.28;5.83;;;29.40;88.90;;;;;;1905468;73;21174;-82
2021/10/13 07:16:50;;;;;;;7.92;5.55;;;29.40;88.60;;;;;;1885270;74;22161;-81
2021/10/13 07:19:21;;;;;;;6.75;5.90;;;29.30;89.50;;;;;;1910849;73;21621;-81
2021/10/13 07:21:51;;;;;;;8.63;5.80;;;29.40;89.90;;;;;;1883344;73;21621;-81
2021/10/13 07:24:22;;;;;;;10.43;6.10;;;29.40;89.60;;;;;;1888995;73;21233;-80
2021/10/13 07:26:53;;;;;;;6.78;5.40;;;29.50;90.00;;;;;;1891313;73;21941;-82
2021/10/13 07:29:26;;;;;;;8.45;6.12;;;29.50;89.30;;;;;;1920443;73;21181;-82
2021/10/13 07:31:59;;;;;;;8.60;5.70;;;29.50;89.20;;;;;;1862595;74;21170;-80
2021/10/13 07:34:29;;;;;;;9.98;6.08;;;29.60;89.80;;;;;;1890498;73;21240;-82
2021/10/13 07:37:00;;;;;;;8.70;6.22;;;29.60;90.10;;;;;;1877480;74;21190;-82
2021/10/13 07:39:31;;;;;;;7.62;6.67;;;29.60;90.30;;;;;;1886428;74;21275;-81
2021/10/13 07:42:02;;;;;;;8.98;6.20;;;29.60;90.30;;;;;;1904556;73;21182;-81
2021/10/13 07:44:33;;;;;;;12.03;6.00;;;29.50;90.50;;;;;;1879545;74;21183;-81
2021/10/13 07:47:04;;;;;;;9.20;7.05;;;29.50;90.60;;;;;;1877482;74;21156;-82
2021/10/13 07:49:35;;;;;;;10.10;6.40;;;29.50;90.80;;;;;;1909335;72;21175;-81
2021/10/13 07:52:06;;;;;;;8.70;6.28;;;29.40;90.90;;;;;;1900388;73;21612;-81
2021/10/13 07:54:37;;;;;;;13.13;6.40;;;29.40;90.70;;;;;;1860583;74;21181;-81
2021/10/13 07:57:07;;;;;;;9.20;6.37;;;29.40;90.80;;;;;;1914822;72;21201;-82
2021/10/13 07:59:38;;;;;;;6.95;5.75;;;29.30;91.00;;;;;;1900364;73;21212;-82
2021/10/13 08:02:09;;;;;;;8.83;5.75;;;29.20;91.40;;;;;;1909792;73;21168;-81
2021/10/13 08:04:40;;;;;;;7.17;5.97;;;29.20;91.30;;;;;;1867087;74;21135;-80
2021/10/13 08:07:11;;;;;;;9.90;6.20;;;29.20;91.30;;;;;;1876761;74;21107;-82
2021/10/13 08:09:44;;;;;;;8.03;5.30;;;29.30;91.60;;;;;;1888171;73;21209;-82
2021/10/13 08:12:14;;;;;;;8.78;6.10;;;29.30;91.50;;;;;;1883047;74;21104;-83
2021/10/13 08:14:45;;;;;;;11.97;6.97;;;29.20;91.30;;;;;;1906738;73;21151;-83
2021/10/13 08:17:17;;;;;;;9.98;6.53;;;29.20;91.50;;;;;;1902423;73;21630;-83
2021/10/13 08:19:48;;;;;;;9.10;5.80;;;29.20;91.60;;;;;;1874563;74;21151;-83
2021/10/13 08:22:19;;;;;;;9.15;5.87;;;29.10;91.50;;;;;;1911867;73;21122;-82
2021/10/13 08:24:50;;;;;;;13.05;7.05;;;29.10;91.60;;;;;;1879264;74;21649;-83
2021/10/13 08:27:21;;;;;;;8.40;6.37;;;29.00;91.80;;;;;;1865693;74;21207;-81
2021/10/13 08:29:52;;;;;;;11.28;6.62;;;29.00;92.20;;;;;;1859637;74;21160;-81
2021/10/13 08:32:23;;;;;;;9.63;6.25;;;29.00;91.90;;;;;;1896838;73;21130;-81
2021/10/13 08:34:54;;;;;;;8.25;6.47;;;29.00;92.00;;;;;;1897960;73;21540;-81
2021/10/13 08:37:24;;;;;;;10.18;6.50;;;29.00;91.80;;;;;;1909947;73;21251;-82
2021/10/13 08:39:58;;;;;;;12.90;6.70;;;28.90;92.00;;;;;;1880073;73;21133;-82
2021/10/13 08:42:29;;;;;;;8.90;6.78;;;28.90;92.10;;;;;;1876024;74;21617;-81
2021/10/13 08:45:00;;;;;;;9.35;6.50;;;28.90;91.90;;;;;;1890240;74;21690;-81
2021/10/13 08:47:30;;;;;;;89.10;14.35;;;29.00;92.10;;;;;;1872405;75;21217;-80
2021/10/13 08:50:02;;;;;;;15.80;6.12;;;29.00;92.00;;;;;;1876687;74;21127;-80
2021/10/13 08:52:37;;;;;;;11.73;6.03;;;29.10;91.40;;;;;;1886627;74;21202;-80
2021/10/13 08:55:07;;;;;;;8.38;5.70;;;29.10;90.90;;;;;;1900473;73;21200;-81
2021/10/13 08:57:44;;;;;;;11.93;6.45;;;29.10;91.00;;;;;;1895991;74;21181;-79
2021/10/13 09:00:13;;;;;;;7.70;5.83;;;29.10;90.90;;;;;;1873975;74;21752;-80
2021/10/13 09:02:45;;;;;;;8.53;6.03;;;29.10;91.00;;;;;;1885281;75;21509;-81
2021/10/13 09:05:20;;;;;;;6.55;5.42;;;29.10;91.50;;;;;;1891892;74;21172;-81
2021/10/13 09:07:53;;;;;;;6.35;5.20;;;29.10;91.20;;;;;;1890973;74;21188;-81
2021/10/13 09:10:26;;;;;;;8.73;6.00;;;29.00;91.00;;;;;;1915630;72;21154;-81
2021/10/13 09:12:59;;;;;;;5.92;4.30;;;29.00;91.40;;;;;;1899428;74;21164;-81
2021/10/13 09:15:31;;;;;;;7.97;4.65;;;28.90;89.40;;;;;;1930278;73;21200;-82
2021/10/13 09:18:04;;;;;;;8.48;4.72;;;28.90;90.00;;;;;;1893768;73;21104;-81
2021/10/13 09:20:40;;;;;;;6.53;4.40;;;29.00;88.70;;;;;;1921728;72;21198;-81
2021/10/13 09:23:29;;;;;;;5.33;4.20;;;29.00;88.30;;;;;;1927477;71;21216;-80
2021/10/13 09:26:00;;;;;;;7.92;4.15;;;29.00;87.40;;;;;;1911234;73;21782;-81
2021/10/13 09:28:34;;;;;;;5.92;3.90;;;29.10;87.50;;;;;;1917427;72;21263;-81
2021/10/13 09:31:09;;;;;;;6.28;4.33;;;29.10;88.00;;;;;;1899952;72;21573;-81
2021/10/13 09:33:41;;;;;;;7.47;5.17;;;29.10;88.80;;;;;;1899919;74;21572;-82
2021/10/13 09:36:13;;;;;;;6.17;4.62;;;29.20;89.30;;;;;;1872091;74;21164;-81
2021/10/13 09:38:49;;;;;;;8.43;4.83;;;29.20;89.20;;;;;;1889390;73;21723;-82
2021/10/13 09:41:25;;;;;;;6.30;4.22;;;29.10;89.00;;;;;;1878282;73;21201;-82
2021/10/13 09:43:57;;;;;;;7.28;5.10;;;29.10;89.10;;;;;;1908156;73;21165;-82
2021/10/13 09:46:30;;;;;;;7.15;5.62;;;29.10;89.50;;;;;;1861299;74;21211;-81
2021/10/13 09:49:04;;;;;;;8.93;4.87;;;29.10;89.90;;;;;;1900070;74;21194;-82
2021/10/13 09:51:37;;;;;;;6.87;4.58;;;29.00;90.30;;;;;;1885754;74;22041;-82
2021/10/13 09:54:09;;;;;;;6.45;5.42;;;29.00;89.10;;;;;;1879901;74;21137;-82
2021/10/13 09:56:40;;;;;;;7.78;5.53;;;29.00;90.20;;;;;;1856114;75;21170;-82
2021/10/13 09:59:17;;;;;;;6.70;5.00;;;29.00;90.30;;;;;;1887871;73;21145;-81
2021/10/13 10:01:53;;;;;;;6.03;4.92;;;28.90;90.10;;;;;;1877833;75;21121;-82
2021/10/13 10:04:27;;;;;;;14.95;4.50;;;29.00;89.00;;;;;;1861937;75;21167;-81
2021/10/13 10:07:00;;;;;;;7.03;4.35;;;28.90;88.30;;;;;;1881027;74;21204;-82
2021/10/13 10:09:30;;;;;;;6.55;4.60;;;29.00;89.50;;;;;;1882054;74;21143;-81
2021/10/13 10:12:04;;;;;;;6.85;4.45;;;28.90;89.60;;;;;;1896777;73;21566;-81
2021/10/13 10:14:40;;;;;;;5.65;4.58;;;28.90;88.80;;;;;;1902610;73;21243;-80
2021/10/13 10:17:10;;;;;;;5.45;4.58;;;28.90;88.10;;;;;;1908391;73;21260;-80
2021/10/13 10:19:43;;;;;;;5.45;4.37;;;28.80;88.80;;;;;;1870804;75;21138;-81
2021/10/13 10:22:21;;;;;;;9.50;6.42;;;28.80;89.80;;;;;;1909740;73;21145;-80
2021/10/13 10:24:54;;;;;;;7.37;4.67;;;28.80;89.00;;;;;;1896176;74;21099;-80
2021/10/13 10:27:27;;;;;;;7.35;4.97;;;28.70;88.90;;;;;;1866331;73;21159;-81
2021/10/13 10:30:00;;;;;;;9.85;4.95;;;28.70;88.90;;;;;;1894142;73;21141;-80
2021/10/13 10:32:32;;;;;;;6.58;5.20;;;28.70;89.10;;;;;;1859727;74;21130;-80
2021/10/13 10:35:05;;;;;;;7.95;6.00;;;28.70;89.70;;;;;;1929688;72;21076;-81
2021/10/13 10:37:41;;;;;;;10.35;5.10;;;28.60;89.90;;;;;;1896827;73;21203;-81
2021/10/13 10:40:15;;;;;;;10.68;5.53;;;28.70;90.30;;;;;;1900329;73;21217;-81
2021/10/13 10:42:56;;;;;;;8.03;5.90;;;28.60;90.30;;;;;;1914766;73;21283;-81
2021/10/13 10:45:26;;;;;;;10.58;6.78;;;28.60;90.70;;;;;;1902040;73;21186;-82
2021/10/13 10:47:59;;;;;;;8.85;6.78;;;28.50;91.20;;;;;;1909722;73;21145;-82
2021/10/13 10:50:32;;;;;;;10.08;6.97;;;28.50;92.20;;;;;;1891331;73;21213;-82
2021/10/13 10:53:05;;;;;;;11.05;7.28;;;28.50;92.30;;;;;;1904644;72;21167;-82
2021/10/13 10:55:42;;;;;;;152.35;21.77;;;28.50;92.60;;;;;;1909350;73;21291;-82
2021/10/13 10:58:17;;;;;;;15.15;8.78;;;28.40;92.90;;;;;;1892256;74;21071;-81
2021/10/13 11:00:50;;;;;;;83.40;16.20;;;28.30;92.80;;;;;;1880425;74;21080;-82
2021/10/13 11:03:25;;;;;;;15.93;9.40;;;28.30;92.90;;;;;;1885452;74;21138;-82
2021/10/13 11:05:57;;;;;;;15.40;8.98;;;28.30;93.10;;;;;;1857298;75;21149;-82
2021/10/13 11:08:34;;;;;;;13.38;8.53;;;28.20;93.10;;;;;;1864696;74;21723;-82
2021/10/13 11:11:05;;;;;;;16.32;8.63;;;28.20;93.20;;;;;;1870983;74;21091;-81
2021/10/13 11:13:35;;;;;;;10.98;8.68;;;28.20;93.30;;;;;;1879530;74;21138;-80
2021/10/13 11:16:15;;;;;;;13.93;8.65;;;28.20;93.50;;;;;;1924692;72;21283;-82
2021/10/13 11:18:45;;;;;;;10.53;8.08;;;28.20;93.60;;;;;;1890211;73;21151;-82
2021/10/13 11:21:16;;;;;;;14.20;8.48;;;28.20;93.70;;;;;;1922940;73;21086;-82
2021/10/13 11:23:48;;;;;;;15.83;8.75;;;28.20;93.90;;;;;;1852799;74;21174;-82
2021/10/13 11:26:21;;;;;;;13.60;8.73;;;28.20;94.00;;;;;;1902184;73;21445;-81
2021/10/13 11:28:52;;;;;;;12.37;9.65;;;28.10;93.90;;;;;;1910944;73;21305;-82
2021/10/13 11:31:23;;;;;;;12.58;9.53;;;28.10;93.90;;;;;;1928158;73;21223;-82
2021/10/13 11:33:58;;;;;;;17.10;9.38;;;28.10;94.30;;;;;;1870066;74;21141;-82
2021/10/13 11:36:32;;;;;;;15.00;9.10;;;28.00;93.90;;;;;;1871382;74;21496;-82
2021/10/13 11:39:03;;;;;;;15.80;8.38;;;28.00;93.90;;;;;;1896885;73;21110;-81
2021/10/13 11:41:33;;;;;;;15.05;8.73;;;28.00;94.00;;;;;;1895632;73;21087;-81
2021/10/13 11:44:08;;;;;;;12.98;9.73;;;28.00;94.00;;;;;;1857914;75;21915;-82
2021/10/13 11:46:38;;;;;;;11.90;8.85;;;27.90;94.00;;;;;;1908887;73;21261;-82
2021/10/13 11:49:12;;;;;;;11.97;9.23;;;27.90;94.10;;;;;;1879918;73;21130;-81
2021/10/13 11:51:42;;;;;;;16.80;10.18;;;27.90;94.10;;;;;;1882311;73;21166;-81
2021/10/13 11:54:19;;;;;;;12.40;9.30;;;27.90;94.10;;;;;;1902591;73;21665;-81
2021/10/13 11:56:51;;;;;;;12.53;9.68;;;27.80;94.20;;;;;;1909822;73;21134;-81
2021/10/13 11:59:22;;;;;;;11.83;9.38;;;27.80;94.20;;;;;;1913670;74;21182;-82
2021/10/13 12:01:52;;;;;;;14.00;9.33;;;27.80;94.30;;;;;;1913279;73;22375;-82
2021/10/13 12:04:24;;;;;;;15.30;9.40;;;27.90;94.40;;;;;;1870114;74;21169;-82
2021/10/13 12:06:55;;;;;;;15.10;10.18;;;27.80;94.40;;;;;;1861564;74;21844;-82
2021/10/13 12:09:26;;;;;;;11.08;9.20;;;27.80;94.40;;;;;;1902357;73;21148;-81
2021/10/13 12:11:57;;;;;;;13.98;9.63;;;27.80;94.50;;;;;;1879469;74;21540;-81
2021/10/13 12:14:31;;;;;;;12.95;9.18;;;27.80;94.60;;;;;;1879326;75;21294;-81
2021/10/13 12:17:03;;;;;;;11.83;9.25;;;27.80;94.60;;;;;;1871311;74;21148;-81
2021/10/13 12:19:38;;;;;;;15.03;9.93;;;27.70;94.70;;;;;;1878864;74;22009;-81
2021/10/13 12:22:10;;;;;;;13.65;9.75;;;27.70;94.70;;;;;;1895162;74;21148;-80
2021/10/13 12:24:47;;;;;;;14.00;9.45;;;27.70;94.70;;;;;;1888039;73;21192;-81
2021/10/13 12:27:20;;;;;;;12.75;9.00;;;27.70;94.70;;;;;;1895609;74;21179;-81
2021/10/13 12:29:51;;;;;;;15.15;9.90;;;27.70;94.70;;;;;;1909268;73;21129;-80
2021/10/13 12:32:26;;;;;;;14.23;9.65;;;27.60;94.70;;;;;;1901183;74;21219;-80
2021/10/13 12:35:06;;;;;;;11.55;8.90;;;27.60;94.80;;;;;;1882841;74;21092;-80
2021/10/13 12:37:42;;;;;;;15.43;9.87;;;27.60;94.90;;;;;;1878390;75;21618;-80
2021/10/13 12:40:15;;;;;;;13.80;9.58;;;27.70;94.90;;;;;;1887296;74;21105;-80
2021/10/13 12:42:46;;;;;;;15.43;9.00;;;27.60;94.90;;;;;;1901759;74;21180;-80
2021/10/13 12:45:19;;;;;;;13.18;9.53;;;27.60;95.00;;;;;;1882870;74;21249;-80
2021/10/13 12:47:50;;;;;;;12.15;8.83;;;27.60;95.00;;;;;;1897875;73;21148;-81
2021/10/13 12:50:21;;;;;;;12.43;8.23;;;27.60;95.00;;;;;;1931335;72;21551;-81
2021/10/13 12:52:52;;;;;;;10.93;7.97;;;27.60;94.90;;;;;;1884748;74;21815;-81
2021/10/13 12:55:22;;;;;;;9.58;7.10;;;27.60;94.70;;;;;;1909105;74;21108;-82
2021/10/13 12:57:53;;;;;;;15.93;7.05;;;27.60;94.50;;;;;;1903828;73;21593;-81
2021/10/13 13:00:23;;;;;;;11.63;7.58;;;27.60;94.30;;;;;;1876872;74;21609;-80
2021/10/13 13:02:54;;;;;;;9.85;6.60;;;27.60;94.70;;;;;;1903548;73;21630;-83
2021/10/13 13:05:25;;;;;;;12.20;7.67;;;27.70;94.20;;;;;;1891101;73;21694;-82
2021/10/13 13:07:56;;;;;;;10.03;7.92;;;27.60;94.30;;;;;;1892929;73;21633;-81